Eko 4 — SVAR8 — position and weather

sailwx.info

Track history (hours):
 
Tides and Currents Weather Stations Pressure Air Temp Water Temp Dewpoint Dewpoint Depression Visibility Wind Speed Wind Dir Waves Ship Positions

Eko 4

Last reported at 2018-Feb-23 15:07 UTC. Time now 2018-Feb-24 18:12 UTC.
Position N 37°37' E 023°46'.

Length 88 m; draft 5.5 m.

Type: Ship (hazmat cat A). MMSI: 240912000.

Date/timePositionNaut miles runAvg speedWind from/ knotsBaromVisibWave heightAir tempDewpointWater temp
2018-Feb-23 15:07N 37°37' E 023°46'1 9.3
2018-Feb-23 14:59N 37°38' E 023°45'4 9.3
2018-Feb-23 14:30N 37°41' E 023°41'5 9.3
2018-Feb-23 14:00N 37°45' E 023°39'5 9.2
2018-Feb-23 13:30N 37°50' E 023°37'5 9.0
2018-Feb-23 13:00N 37°54' E 023°36'4 7.3
2018-Feb-23 12:30N 37°57' E 023°34'4 8.0
2018-Feb-23 12:00N 38°01' E 023°32'1 1.2
2018-Feb-23 11:29N 38°02' E 023°32'0 0.0
2018-Feb-23 10:59N 38°02' E 023°32'0 0.0
2018-Feb-23 10:29N 38°02' E 023°32'0 0.1
2018-Feb-23 09:59N 38°02' E 023°32'0 0.1
2018-Feb-23 09:29N 38°02' E 023°32'0 0.0
2018-Feb-23 08:59N 38°02' E 023°32'0 0.0
2018-Feb-23 08:29N 38°02' E 023°32'0 0.1
2018-Feb-23 07:56N 38°01' E 023°32'0 0.0
2018-Feb-23 07:29N 38°01' E 023°32'0 0.1
2018-Feb-23 06:59N 38°01' E 023°32'0 0.0
2018-Feb-23 06:29N 38°01' E 023°32'0 0.0
2018-Feb-23 05:59N 38°01' E 023°32'0 0.0
2018-Feb-23 05:29N 38°01' E 023°32'0 0.1
2018-Feb-23 04:59N 38°02' E 023°32'0 0.0
2018-Feb-23 04:29N 38°01' E 023°32'0 0.0
2018-Feb-23 03:59N 38°01' E 023°32'0 0.0
2018-Feb-23 03:29N 38°01' E 023°32'0 0.1
2018-Feb-23 02:59N 38°01' E 023°32'0 0.7
2018-Feb-23 02:31N 38°01' E 023°32'1 2.8
2018-Feb-23 02:01N 38°01' E 023°33'2 3.4
2018-Feb-23 01:25N 38°02' E 023°36'0 0.0
2018-Feb-23 00:58N 38°02' E 023°36'0 0.0
2018-Feb-23 00:28N 38°02' E 023°36'0 0.0
2018-Feb-22 23:58N 38°02' E 023°36'0 0.0
2018-Feb-22 23:22N 38°02' E 023°36'0 0.0
2018-Feb-22 22:58N 38°02' E 023°36'0 0.0
2018-Feb-22 22:28N 38°02' E 023°36'0 0.0
2018-Feb-22 21:55N 38°02' E 023°36'0 0.0
2018-Feb-22 21:28N 38°02' E 023°36'0 0.0
2018-Feb-22 20:55N 38°02' E 023°36'0 0.0
2018-Feb-22 20:25N 38°02' E 023°36'0 0.0
2018-Feb-22 19:58N 38°02' E 023°36'0 0.0
2018-Feb-22 19:28N 38°02' E 023°36'0 0.0
2018-Feb-22 18:58N 38°02' E 023°36'0 0.0
2018-Feb-22 18:28N 38°02' E 023°36'0 0.0
2018-Feb-22 17:58N 38°02' E 023°36'0 0.0
2018-Feb-22 17:28N 38°02' E 023°36'0 0.0
2018-Feb-22 16:58N 38°02' E 023°36'0 0.0
2018-Feb-22 16:28N 38°02' E 023°36'0 0.0
2018-Feb-22 15:55N 38°02' E 023°36'0 0.0
2018-Feb-22 15:25N 38°02' E 023°36'0 0.0
2018-Feb-22 14:55N 38°02' E 023°36'0 0.0
2018-Feb-22 14:25N 38°02' E 023°36'0 0.0
2018-Feb-22 14:00N 38°02' E 023°36'2 3.7
2018-Feb-22 13:31N 38°01' E 023°33'1 1.9
2018-Feb-22 13:01N 38°02' E 023°32'0 0.0
2018-Feb-22 12:31N 38°02' E 023°32'0 0.0
2018-Feb-22 12:01N 38°02' E 023°32'0 0.0
2018-Feb-22 11:31N 38°02' E 023°32'0 0.0
2018-Feb-22 11:01N 38°02' E 023°32'0 0.0
2018-Feb-22 10:31N 38°02' E 023°32'0 0.0
2018-Feb-22 10:00N 38°02' E 023°32'0 0.0
2018-Feb-22 09:31N 38°02' E 023°32'0 0.0
2018-Feb-22 09:00N 38°02' E 023°32'0 0.0
2018-Feb-22 08:30N 38°02' E 023°32'0 0.1
2018-Feb-22 08:01N 38°02' E 023°32'0 0.0
2018-Feb-22 07:30N 38°02' E 023°32'0 0.0
2018-Feb-22 07:00N 38°02' E 023°32'0 0.0
2018-Feb-22 06:30N 38°02' E 023°32'1 2.1
2018-Feb-22 06:00N 38°01' E 023°33'4 8.4
2018-Feb-22 05:30N 37°57' E 023°35'3 6.5
2018-Feb-22 05:00N 37°54' E 023°37'5 9.1
2018-Feb-22 04:30N 37°50' E 023°40'510.0
2018-Feb-22 04:00N 37°46' E 023°43'5 9.9
2018-Feb-22 03:29N 37°41' E 023°46'  
2018-Feb-19 11:24N 37°38' E 023°46'4 8.8
2018-Feb-19 11:00N 37°40' E 023°42'5 9.1
2018-Feb-19 10:30N 37°44' E 023°40'5 9.3
2018-Feb-19 10:00N 37°48' E 023°37'5 9.4
2018-Feb-19 09:30N 37°53' E 023°36'4 8.2
2018-Feb-19 09:00N 37°57' E 023°35'4 7.6
2018-Feb-19 08:30N 38°00' E 023°33'2 3.8
2018-Feb-19 08:00N 38°02' E 023°31'0 0.1
2018-Feb-19 07:30N 38°02' E 023°31'0 0.0
2018-Feb-19 07:00N 38°02' E 023°31'0 0.0
2018-Feb-19 06:30N 38°02' E 023°31'0 0.0
2018-Feb-19 06:00N 38°02' E 023°31'0 0.0
2018-Feb-19 05:30N 38°02' E 023°31'0 0.0
2018-Feb-19 05:00N 38°02' E 023°31'0 0.0
2018-Feb-19 04:30N 38°02' E 023°31'0 0.0
2018-Feb-19 04:00N 38°02' E 023°31'0 0.0
2018-Feb-19 03:30N 38°02' E 023°31'0 0.0
2018-Feb-19 03:00N 38°02' E 023°31'0 0.1
2018-Feb-19 02:30N 38°02' E 023°31'0 0.0
2018-Feb-19 02:00N 38°02' E 023°31'0 0.0
2018-Feb-19 01:30N 38°02' E 023°31'0 0.1
2018-Feb-19 01:00N 38°02' E 023°31'0 0.0
2018-Feb-19 00:30N 38°02' E 023°31'0 0.0
2018-Feb-19 00:00N 38°02' E 023°31'0 0.0
2018-Feb-18 23:30N 38°02' E 023°31'0 0.0
2018-Feb-18 23:00N 38°02' E 023°31'0 0.0
2018-Feb-18 22:30N 38°02' E 023°31'0 0.0
2018-Feb-18 22:00N 38°02' E 023°31'0 0.0
2018-Feb-18 21:30N 38°02' E 023°31'0 0.0
2018-Feb-18 21:00N 38°02' E 023°31'0 0.0
2018-Feb-18 20:30N 38°02' E 023°31'0 0.0
2018-Feb-18 20:00N 38°02' E 023°31'0 0.0
2018-Feb-18 19:30N 38°02' E 023°31'0 0.0
2018-Feb-18 19:00N 38°02' E 023°31'0 0.1
2018-Feb-18 18:30N 38°02' E 023°31'1 1.5
2018-Feb-18 18:00N 38°01' E 023°32'3 0.3
2018-Feb-18 07:28N 38°02' E 023°36'0 0.3
2018-Feb-18 07:00N 38°02' E 023°36'2 4.7
2018-Feb-18 06:29N 38°01' E 023°32'0 0.1
2018-Feb-18 05:59N 38°01' E 023°32'0 0.0
2018-Feb-18 05:29N 38°01' E 023°32'0 0.0
2018-Feb-18 04:59N 38°01' E 023°32'0 0.0
2018-Feb-18 04:29N 38°01' E 023°32'0 0.0
2018-Feb-18 03:59N 38°01' E 023°32'0 0.0
2018-Feb-18 03:29N 38°01' E 023°32'0 0.0
2018-Feb-18 02:59N 38°01' E 023°32'0 0.0
2018-Feb-18 02:29N 38°01' E 023°32'0 0.0
2018-Feb-18 01:59N 38°01' E 023°32'0 0.0
2018-Feb-18 01:29N 38°01' E 023°32'0 0.0
2018-Feb-18 00:59N 38°01' E 023°32'0 0.0
2018-Feb-18 00:29N 38°01' E 023°32'0 0.0
2018-Feb-17 23:59N 38°01' E 023°32'0 0.0
2018-Feb-17 23:29N 38°01' E 023°32'0 0.0
2018-Feb-17 22:59N 38°01' E 023°32'0 0.0
2018-Feb-17 22:29N 38°01' E 023°32'0 0.0
2018-Feb-17 21:59N 38°01' E 023°32'0 0.0
2018-Feb-17 21:29N 38°01' E 023°32'0 0.0
2018-Feb-17 20:59N 38°01' E 023°32'0 0.0
2018-Feb-17 20:29N 38°01' E 023°32'0 0.0
2018-Feb-17 19:59N 38°01' E 023°32'0 0.0
2018-Feb-17 19:29N 38°01' E 023°32'0 0.0
2018-Feb-17 18:59N 38°01' E 023°33'0 0.1
2018-Feb-17 18:29N 38°01' E 023°32'0 0.0
2018-Feb-17 17:59N 38°01' E 023°32'0 0.0
2018-Feb-17 17:29N 38°01' E 023°32'0 0.0
2018-Feb-17 16:59N 38°01' E 023°32'0 0.0
2018-Feb-17 16:29N 38°01' E 023°32'0 0.0
2018-Feb-17 15:59N 38°01' E 023°32'0 0.0
2018-Feb-17 15:29N 38°01' E 023°32'0 0.0
2018-Feb-17 14:59N 38°01' E 023°32'0 0.0
2018-Feb-17 14:29N 38°01' E 023°32'0 0.0
2018-Feb-17 13:59N 38°01' E 023°32'0 0.0
2018-Feb-17 13:29N 38°01' E 023°32'0 0.0
2018-Feb-17 12:59N 38°01' E 023°32'0 0.0
2018-Feb-17 12:29N 38°01' E 023°32'0 0.0
2018-Feb-17 11:59N 38°01' E 023°32'0 0.0
2018-Feb-17 11:29N 38°01' E 023°32'0 0.0
2018-Feb-17 10:59N 38°01' E 023°32'0 0.0
2018-Feb-17 10:29N 38°01' E 023°32'0 0.1
2018-Feb-17 09:59N 38°01' E 023°32'0 0.0
2018-Feb-17 09:29N 38°01' E 023°32'0 0.0
2018-Feb-17 08:59N 38°01' E 023°32'0 0.0
2018-Feb-17 08:29N 38°01' E 023°32'0 0.0
2018-Feb-17 07:56N 38°01' E 023°32'0 0.0
2018-Feb-17 07:29N 38°01' E 023°32'0 0.0
2018-Feb-17 06:59N 38°01' E 023°32'0 0.0
2018-Feb-17 06:29N 38°01' E 023°32'0 0.0
2018-Feb-17 05:59N 38°01' E 023°32'0 0.0
2018-Feb-17 05:29N 38°01' E 023°32'0 0.0
2018-Feb-17 04:59N 38°01' E 023°32'0 0.0
2018-Feb-17 04:29N 38°01' E 023°32'0 0.0
2018-Feb-17 03:59N 38°01' E 023°32'0 0.0
2018-Feb-17 03:29N 38°01' E 023°33'0 0.0
2018-Feb-17 02:56N 38°01' E 023°33'0 0.0
2018-Feb-17 02:29N 38°01' E 023°32'0 0.0
2018-Feb-17 01:59N 38°01' E 023°33'0 0.0
2018-Feb-17 01:29N 38°01' E 023°33'0 0.0
2018-Feb-17 00:59N 38°01' E 023°33'0 0.0
2018-Feb-17 00:29N 38°01' E 023°33'0 0.0
2018-Feb-16 23:59N 38°01' E 023°32'0 0.0
2018-Feb-16 23:26N 38°01' E 023°33'0 0.0
2018-Feb-16 22:59N 38°01' E 023°33'0 0.0
2018-Feb-16 22:29N 38°01' E 023°33'0 0.0
2018-Feb-16 21:59N 38°01' E 023°33'0 0.0
2018-Feb-16 21:29N 38°01' E 023°32'0 0.0
2018-Feb-16 20:59N 38°01' E 023°32'0 0.0
2018-Feb-16 20:29N 38°01' E 023°32'0 0.0
2018-Feb-16 19:59N 38°01' E 023°33'0 0.0
2018-Feb-16 19:29N 38°01' E 023°32'0 0.0
2018-Feb-16 18:59N 38°01' E 023°33'0 0.0
2018-Feb-16 18:29N 38°01' E 023°32'0 0.0
2018-Feb-16 17:59N 38°01' E 023°32'0 0.0
2018-Feb-16 17:29N 38°01' E 023°33'0 0.0
2018-Feb-16 16:59N 38°01' E 023°33'0 0.0
2018-Feb-16 16:29N 38°01' E 023°32'0 0.0
2018-Feb-16 15:59N 38°01' E 023°32'0 0.0
2018-Feb-16 15:29N 38°01' E 023°32'0 0.0
2018-Feb-16 14:59N 38°01' E 023°33'0 0.0
2018-Feb-16 14:29N 38°01' E 023°33'0 0.0
2018-Feb-16 13:59N 38°01' E 023°32'0 0.0
2018-Feb-16 13:29N 38°01' E 023°32'0 0.0
2018-Feb-16 12:59N 38°01' E 023°32'0 0.0
2018-Feb-16 12:29N 38°01' E 023°32'0 0.0
2018-Feb-16 11:59N 38°01' E 023°32'0 0.0
2018-Feb-16 11:29N 38°01' E 023°32'0 0.0
2018-Feb-16 10:59N 38°01' E 023°32'0 0.0
2018-Feb-16 10:29N 38°01' E 023°32'0 0.0
2018-Feb-16 09:59N 38°01' E 023°32'0 0.0
2018-Feb-16 09:29N 38°01' E 023°32'0 0.0
2018-Feb-16 08:59N 38°01' E 023°32'0 0.0
2018-Feb-16 08:29N 38°01' E 023°32'0 0.0
2018-Feb-16 07:59N 38°01' E 023°32'0 0.0
2018-Feb-16 07:26N 38°01' E 023°32'0 0.1
2018-Feb-16 06:59N 38°01' E 023°32'0 0.0
2018-Feb-16 06:29N 38°01' E 023°32'0 0.0
2018-Feb-16 05:59N 38°01' E 023°32'0 0.0
2018-Feb-16 05:29N 38°01' E 023°32'0 0.0
2018-Feb-16 04:59N 38°01' E 023°32'0 0.0
2018-Feb-16 04:29N 38°01' E 023°32'0 0.0
2018-Feb-16 03:59N 38°01' E 023°33'0 0.1
2018-Feb-16 03:29N 38°01' E 023°32'0 0.0
2018-Feb-16 02:59N 38°01' E 023°32'0 0.0
2018-Feb-16 02:29N 38°01' E 023°32'1 1.7
2018-Feb-16 02:00N 38°02' E 023°31'1 0.1
2018-Feb-15 20:19N 38°02' E 023°31'0 0.0
2018-Feb-15 19:59N 38°02' E 023°31'0 0.2
2018-Feb-15 19:30N 38°02' E 023°31'2 3.4
2018-Feb-15 19:00N 38°01' E 023°32'4 7.3
2018-Feb-15 18:30N 37°57' E 023°33'3 5.8
2018-Feb-15 18:00N 37°55' E 023°36'0 0.9
2018-Feb-15 17:30N 37°55' E 023°36'2 4.6
2018-Feb-15 17:01N 37°54' E 023°33'0 0.1
2018-Feb-15 16:29N 37°54' E 023°33'0 0.0
2018-Feb-15 15:59N 37°54' E 023°33'0 0.0
2018-Feb-15 15:29N 37°54' E 023°33'0 0.2
2018-Feb-15 14:59N 37°54' E 023°33'0 0.1
2018-Feb-15 14:29N 37°54' E 023°33'0 0.2
2018-Feb-15 14:00N 37°54' E 023°33'0 0.0
2018-Feb-15 13:29N 37°54' E 023°33'0 0.1
2018-Feb-15 12:57N 37°54' E 023°33'0 0.4
2018-Feb-15 12:30N 37°54' E 023°33'3 5.8
2018-Feb-15 12:00N 37°53' E 023°37'5 9.0
2018-Feb-15 11:30N 37°50' E 023°40'5 9.6
2018-Feb-15 11:00N 37°45' E 023°43'5 9.6
2018-Feb-15 10:30N 37°41' E 023°45'  
Track history (hours):
 
Tides and Currents Weather Stations Pressure Air Temp Water Temp Dewpoint Dewpoint Depression Visibility Wind Speed Wind Dir Waves Ship Positions

Eko 4

Last reported at 2018-Feb-23 15:07 UTC. Time now 2018-Feb-24 18:12 UTC.
Position N 37°37' E 023°46'.

Length 88 m; draft 5.5 m.

Type: Ship (hazmat cat A). MMSI: 240912000.

Date/timePositionNaut miles runAvg speedWind from/ knotsBaromVisibWave heightAir tempDewpointWater temp
2018-Feb-23 15:07N 37°37' E 023°46'1 9.3
2018-Feb-23 14:59N 37°38' E 023°45'4 9.3
2018-Feb-23 14:30N 37°41' E 023°41'5 9.3
2018-Feb-23 14:00N 37°45' E 023°39'5 9.2
2018-Feb-23 13:30N 37°50' E 023°37'5 9.0
2018-Feb-23 13:00N 37°54' E 023°36'4 7.3
2018-Feb-23 12:30N 37°57' E 023°34'4 8.0
2018-Feb-23 12:00N 38°01' E 023°32'1 1.2
2018-Feb-23 11:29N 38°02' E 023°32'0 0.0
2018-Feb-23 10:59N 38°02' E 023°32'0 0.0
2018-Feb-23 10:29N 38°02' E 023°32'0 0.1
2018-Feb-23 09:59N 38°02' E 023°32'0 0.1
2018-Feb-23 09:29N 38°02' E 023°32'0 0.0
2018-Feb-23 08:59N 38°02' E 023°32'0 0.0
2018-Feb-23 08:29N 38°02' E 023°32'0 0.1
2018-Feb-23 07:56N 38°01' E 023°32'0 0.0
2018-Feb-23 07:29N 38°01' E 023°32'0 0.1
2018-Feb-23 06:59N 38°01' E 023°32'0 0.0
2018-Feb-23 06:29N 38°01' E 023°32'0 0.0
2018-Feb-23 05:59N 38°01' E 023°32'0 0.0
2018-Feb-23 05:29N 38°01' E 023°32'0 0.1
2018-Feb-23 04:59N 38°02' E 023°32'0 0.0
2018-Feb-23 04:29N 38°01' E 023°32'0 0.0
2018-Feb-23 03:59N 38°01' E 023°32'0 0.0
2018-Feb-23 03:29N 38°01' E 023°32'0 0.1
2018-Feb-23 02:59N 38°01' E 023°32'0 0.7
2018-Feb-23 02:31N 38°01' E 023°32'1 2.8
2018-Feb-23 02:01N 38°01' E 023°33'2 3.4
2018-Feb-23 01:25N 38°02' E 023°36'0 0.0
2018-Feb-23 00:58N 38°02' E 023°36'0 0.0
2018-Feb-23 00:28N 38°02' E 023°36'0 0.0
2018-Feb-22 23:58N 38°02' E 023°36'0 0.0
2018-Feb-22 23:22N 38°02' E 023°36'0 0.0
2018-Feb-22 22:58N 38°02' E 023°36'0 0.0
2018-Feb-22 22:28N 38°02' E 023°36'0 0.0
2018-Feb-22 21:55N 38°02' E 023°36'0 0.0
2018-Feb-22 21:28N 38°02' E 023°36'0 0.0
2018-Feb-22 20:55N 38°02' E 023°36'0 0.0
2018-Feb-22 20:25N 38°02' E 023°36'0 0.0
2018-Feb-22 19:58N 38°02' E 023°36'0 0.0
2018-Feb-22 19:28N 38°02' E 023°36'0 0.0
2018-Feb-22 18:58N 38°02' E 023°36'0 0.0
2018-Feb-22 18:28N 38°02' E 023°36'0 0.0
2018-Feb-22 17:58N 38°02' E 023°36'0 0.0
2018-Feb-22 17:28N 38°02' E 023°36'0 0.0
2018-Feb-22 16:58N 38°02' E 023°36'0 0.0
2018-Feb-22 16:28N 38°02' E 023°36'0 0.0
2018-Feb-22 15:55N 38°02' E 023°36'0 0.0
2018-Feb-22 15:25N 38°02' E 023°36'0 0.0
2018-Feb-22 14:55N 38°02' E 023°36'0 0.0
2018-Feb-22 14:25N 38°02' E 023°36'0 0.0
2018-Feb-22 14:00N 38°02' E 023°36'2 3.7
2018-Feb-22 13:31N 38°01' E 023°33'1 1.9
2018-Feb-22 13:01N 38°02' E 023°32'0 0.0
2018-Feb-22 12:31N 38°02' E 023°32'0 0.0
2018-Feb-22 12:01N 38°02' E 023°32'0 0.0
2018-Feb-22 11:31N 38°02' E 023°32'0 0.0
2018-Feb-22 11:01N 38°02' E 023°32'0 0.0
2018-Feb-22 10:31N 38°02' E 023°32'0 0.0
2018-Feb-22 10:00N 38°02' E 023°32'0 0.0
2018-Feb-22 09:31N 38°02' E 023°32'0 0.0
2018-Feb-22 09:00N 38°02' E 023°32'0 0.0
2018-Feb-22 08:30N 38°02' E 023°32'0 0.1
2018-Feb-22 08:01N 38°02' E 023°32'0 0.0
2018-Feb-22 07:30N 38°02' E 023°32'0 0.0
2018-Feb-22 07:00N 38°02' E 023°32'0 0.0
2018-Feb-22 06:30N 38°02' E 023°32'1 2.1
2018-Feb-22 06:00N 38°01' E 023°33'4 8.4
2018-Feb-22 05:30N 37°57' E 023°35'3 6.5
2018-Feb-22 05:00N 37°54' E 023°37'5 9.1
2018-Feb-22 04:30N 37°50' E 023°40'510.0
2018-Feb-22 04:00N 37°46' E 023°43'5 9.9
2018-Feb-22 03:29N 37°41' E 023°46'  
2018-Feb-19 11:24N 37°38' E 023°46'4 8.8
2018-Feb-19 11:00N 37°40' E 023°42'5 9.1
2018-Feb-19 10:30N 37°44' E 023°40'5 9.3
2018-Feb-19 10:00N 37°48' E 023°37'5 9.4
2018-Feb-19 09:30N 37°53' E 023°36'4 8.2
2018-Feb-19 09:00N 37°57' E 023°35'4 7.6
2018-Feb-19 08:30N 38°00' E 023°33'2 3.8
2018-Feb-19 08:00N 38°02' E 023°31'0 0.1
2018-Feb-19 07:30N 38°02' E 023°31'0 0.0
2018-Feb-19 07:00N 38°02' E 023°31'0 0.0
2018-Feb-19 06:30N 38°02' E 023°31'0 0.0
2018-Feb-19 06:00N 38°02' E 023°31'0 0.0
2018-Feb-19 05:30N 38°02' E 023°31'0 0.0
2018-Feb-19 05:00N 38°02' E 023°31'0 0.0
2018-Feb-19 04:30N 38°02' E 023°31'0 0.0
2018-Feb-19 04:00N 38°02' E 023°31'0 0.0
2018-Feb-19 03:30N 38°02' E 023°31'0 0.0
2018-Feb-19 03:00N 38°02' E 023°31'0 0.1
2018-Feb-19 02:30N 38°02' E 023°31'0 0.0
2018-Feb-19 02:00N 38°02' E 023°31'0 0.0
2018-Feb-19 01:30N 38°02' E 023°31'0 0.1
2018-Feb-19 01:00N 38°02' E 023°31'0 0.0
2018-Feb-19 00:30N 38°02' E 023°31'0 0.0
2018-Feb-19 00:00N 38°02' E 023°31'0 0.0
2018-Feb-18 23:30N 38°02' E 023°31'0 0.0
2018-Feb-18 23:00N 38°02' E 023°31'0 0.0
2018-Feb-18 22:30N 38°02' E 023°31'0 0.0
2018-Feb-18 22:00N 38°02' E 023°31'0 0.0
2018-Feb-18 21:30N 38°02' E 023°31'0 0.0
2018-Feb-18 21:00N 38°02' E 023°31'0 0.0
2018-Feb-18 20:30N 38°02' E 023°31'0 0.0
2018-Feb-18 20:00N 38°02' E 023°31'0 0.0
2018-Feb-18 19:30N 38°02' E 023°31'0 0.0
2018-Feb-18 19:00N 38°02' E 023°31'0 0.1
2018-Feb-18 18:30N 38°02' E 023°31'1 1.5
2018-Feb-18 18:00N 38°01' E 023°32'3 0.3
2018-Feb-18 07:28N 38°02' E 023°36'0 0.3
2018-Feb-18 07:00N 38°02' E 023°36'2 4.7
2018-Feb-18 06:29N 38°01' E 023°32'0 0.1
2018-Feb-18 05:59N 38°01' E 023°32'0 0.0
2018-Feb-18 05:29N 38°01' E 023°32'0 0.0
2018-Feb-18 04:59N 38°01' E 023°32'0 0.0
2018-Feb-18 04:29N 38°01' E 023°32'0 0.0
2018-Feb-18 03:59N 38°01' E 023°32'0 0.0
2018-Feb-18 03:29N 38°01' E 023°32'0 0.0
2018-Feb-18 02:59N 38°01' E 023°32'0 0.0
2018-Feb-18 02:29N 38°01' E 023°32'0 0.0
2018-Feb-18 01:59N 38°01' E 023°32'0 0.0
2018-Feb-18 01:29N 38°01' E 023°32'0 0.0
2018-Feb-18 00:59N 38°01' E 023°32'0 0.0
2018-Feb-18 00:29N 38°01' E 023°32'0 0.0
2018-Feb-17 23:59N 38°01' E 023°32'0 0.0
2018-Feb-17 23:29N 38°01' E 023°32'0 0.0
2018-Feb-17 22:59N 38°01' E 023°32'0 0.0
2018-Feb-17 22:29N 38°01' E 023°32'0 0.0
2018-Feb-17 21:59N 38°01' E 023°32'0 0.0
2018-Feb-17 21:29N 38°01' E 023°32'0 0.0
2018-Feb-17 20:59N 38°01' E 023°32'0 0.0
2018-Feb-17 20:29N 38°01' E 023°32'0 0.0
2018-Feb-17 19:59N 38°01' E 023°32'0 0.0
2018-Feb-17 19:29N 38°01' E 023°32'0 0.0
2018-Feb-17 18:59N 38°01' E 023°33'0 0.1
2018-Feb-17 18:29N 38°01' E 023°32'0 0.0
2018-Feb-17 17:59N 38°01' E 023°32'0 0.0
2018-Feb-17 17:29N 38°01' E 023°32'0 0.0
2018-Feb-17 16:59N 38°01' E 023°32'0 0.0
2018-Feb-17 16:29N 38°01' E 023°32'0 0.0
2018-Feb-17 15:59N 38°01' E 023°32'0 0.0
2018-Feb-17 15:29N 38°01' E 023°32'0 0.0
2018-Feb-17 14:59N 38°01' E 023°32'0 0.0
2018-Feb-17 14:29N 38°01' E 023°32'0 0.0
2018-Feb-17 13:59N 38°01' E 023°32'0 0.0
2018-Feb-17 13:29N 38°01' E 023°32'0 0.0
2018-Feb-17 12:59N 38°01' E 023°32'0 0.0
2018-Feb-17 12:29N 38°01' E 023°32'0 0.0
2018-Feb-17 11:59N 38°01' E 023°32'0 0.0
2018-Feb-17 11:29N 38°01' E 023°32'0 0.0
2018-Feb-17 10:59N 38°01' E 023°32'0 0.0
2018-Feb-17 10:29N 38°01' E 023°32'0 0.1
2018-Feb-17 09:59N 38°01' E 023°32'0 0.0
2018-Feb-17 09:29N 38°01' E 023°32'0 0.0
2018-Feb-17 08:59N 38°01' E 023°32'0 0.0
2018-Feb-17 08:29N 38°01' E 023°32'0 0.0
2018-Feb-17 07:56N 38°01' E 023°32'0 0.0
2018-Feb-17 07:29N 38°01' E 023°32'0 0.0
2018-Feb-17 06:59N 38°01' E 023°32'0 0.0
2018-Feb-17 06:29N 38°01' E 023°32'0 0.0
2018-Feb-17 05:59N 38°01' E 023°32'0 0.0
2018-Feb-17 05:29N 38°01' E 023°32'0 0.0
2018-Feb-17 04:59N 38°01' E 023°32'0 0.0
2018-Feb-17 04:29N 38°01' E 023°32'0 0.0
2018-Feb-17 03:59N 38°01' E 023°32'0 0.0
2018-Feb-17 03:29N 38°01' E 023°33'0 0.0
2018-Feb-17 02:56N 38°01' E 023°33'0 0.0
2018-Feb-17 02:29N 38°01' E 023°32'0 0.0
2018-Feb-17 01:59N 38°01' E 023°33'0 0.0
2018-Feb-17 01:29N 38°01' E 023°33'0 0.0
2018-Feb-17 00:59N 38°01' E 023°33'0 0.0
2018-Feb-17 00:29N 38°01' E 023°33'0 0.0
2018-Feb-16 23:59N 38°01' E 023°32'0 0.0
2018-Feb-16 23:26N 38°01' E 023°33'0 0.0
2018-Feb-16 22:59N 38°01' E 023°33'0 0.0
2018-Feb-16 22:29N 38°01' E 023°33'0 0.0
2018-Feb-16 21:59N 38°01' E 023°33'0 0.0
2018-Feb-16 21:29N 38°01' E 023°32'0 0.0
2018-Feb-16 20:59N 38°01' E 023°32'0 0.0
2018-Feb-16 20:29N 38°01' E 023°32'0 0.0
2018-Feb-16 19:59N 38°01' E 023°33'0 0.0
2018-Feb-16 19:29N 38°01' E 023°32'0 0.0
2018-Feb-16 18:59N 38°01' E 023°33'0 0.0
2018-Feb-16 18:29N 38°01' E 023°32'0 0.0
2018-Feb-16 17:59N 38°01' E 023°32'0 0.0
2018-Feb-16 17:29N 38°01' E 023°33'0 0.0
2018-Feb-16 16:59N 38°01' E 023°33'0 0.0
2018-Feb-16 16:29N 38°01' E 023°32'0 0.0
2018-Feb-16 15:59N 38°01' E 023°32'0 0.0
2018-Feb-16 15:29N 38°01' E 023°32'0 0.0
2018-Feb-16 14:59N 38°01' E 023°33'0 0.0
2018-Feb-16 14:29N 38°01' E 023°33'0 0.0
2018-Feb-16 13:59N 38°01' E 023°32'0 0.0
2018-Feb-16 13:29N 38°01' E 023°32'0 0.0
2018-Feb-16 12:59N 38°01' E 023°32'0 0.0
2018-Feb-16 12:29N 38°01' E 023°32'0 0.0
2018-Feb-16 11:59N 38°01' E 023°32'0 0.0
2018-Feb-16 11:29N 38°01' E 023°32'0 0.0
2018-Feb-16 10:59N 38°01' E 023°32'0 0.0
2018-Feb-16 10:29N 38°01' E 023°32'0 0.0
2018-Feb-16 09:59N 38°01' E 023°32'0 0.0
2018-Feb-16 09:29N 38°01' E 023°32'0 0.0
2018-Feb-16 08:59N 38°01' E 023°32'0 0.0
2018-Feb-16 08:29N 38°01' E 023°32'0 0.0
2018-Feb-16 07:59N 38°01' E 023°32'0 0.0
2018-Feb-16 07:26N 38°01' E 023°32'0 0.1
2018-Feb-16 06:59N 38°01' E 023°32'0 0.0
2018-Feb-16 06:29N 38°01' E 023°32'0 0.0
2018-Feb-16 05:59N 38°01' E 023°32'0 0.0
2018-Feb-16 05:29N 38°01' E 023°32'0 0.0
2018-Feb-16 04:59N 38°01' E 023°32'0 0.0
2018-Feb-16 04:29N 38°01' E 023°32'0 0.0
2018-Feb-16 03:59N 38°01' E 023°33'0 0.1
2018-Feb-16 03:29N 38°01' E 023°32'0 0.0
2018-Feb-16 02:59N 38°01' E 023°32'0 0.0
2018-Feb-16 02:29N 38°01' E 023°32'1 1.7
2018-Feb-16 02:00N 38°02' E 023°31'1 0.1
2018-Feb-15 20:19N 38°02' E 023°31'0 0.0
2018-Feb-15 19:59N 38°02' E 023°31'0 0.2
2018-Feb-15 19:30N 38°02' E 023°31'2 3.4
2018-Feb-15 19:00N 38°01' E 023°32'4 7.3
2018-Feb-15 18:30N 37°57' E 023°33'3 5.8
2018-Feb-15 18:00N 37°55' E 023°36'0 0.9
2018-Feb-15 17:30N 37°55' E 023°36'2 4.6
2018-Feb-15 17:01N 37°54' E 023°33'0 0.1
2018-Feb-15 16:29N 37°54' E 023°33'0 0.0
2018-Feb-15 15:59N 37°54' E 023°33'0 0.0
2018-Feb-15 15:29N 37°54' E 023°33'0 0.2
2018-Feb-15 14:59N 37°54' E 023°33'0 0.1
2018-Feb-15 14:29N 37°54' E 023°33'0 0.2
2018-Feb-15 14:00N 37°54' E 023°33'0 0.0
2018-Feb-15 13:29N 37°54' E 023°33'0 0.1
2018-Feb-15 12:57N 37°54' E 023°33'0 0.4
2018-Feb-15 12:30N 37°54' E 023°33'3 5.8
2018-Feb-15 12:00N 37°53' E 023°37'5 9.0
2018-Feb-15 11:30N 37°50' E 023°40'5 9.6
2018-Feb-15 11:00N 37°45' E 023°43'5 9.6
2018-Feb-15 10:30N 37°41' E 023°45'  

Dump ship's entire track history